»·PEaware :: N457SB KSBD-KPSP

N457SB :: KSBD-KPSP

FLIGHT INFORMATION

Flight Status: Arrived
Operator: Privately registered:
United States
More flights under this callsign
Pilot: Dean S. (16265)
Aircraft: CESSNA 404 TITAN
(C404)
More flights by this aircraft type
Origin: KSBD San Bernardino Intl
United States
Destination: KPSP Palm Springs Intl
United States
More flights between these airports :: More routes between these airports
Route: PDZ NIKKL V64 TRM
File this flight plan on PilotEdge
Remarks:
Altitude:
(Current/Filed)
7,500ft
Speed:
(Current/Filed)
180kts
Departed: 28-Sep-17 08:02 PM
Arrived: 28-Sep-17 08:43 PM
Distance/Time
Traveled:
40nm/0:41
Distance/Time
To Go:
Arrived

Flight Plot

Page will automatically refresh every two minutes.

Flight plan parsing failed; only flown route is shown


Map Options




Map Legend


Flown Route
Filed Route
Departure Airport
Arrival Airport
Navaid (VOR, NDB)
Fix

Horizontal Profiles

Position Reports

Time Latitude Longitude Heading Altitude Ground
Speed
28-Sep-17 19:51 34.103238 -117.246049 271 1161ft 0kts
28-Sep-17 19:52 34.103238 -117.246049 271 1161ft 0kts
28-Sep-17 19:53 34.103118 -117.245846 21 1161ft 2kts
28-Sep-17 19:54 34.103141 -117.245835 21 1161ft 0kts
28-Sep-17 19:55 34.103142 -117.245835 21 1161ft 0kts
28-Sep-17 19:56 34.103142 -117.245835 21 1161ft 0kts
28-Sep-17 19:57 34.103206 -117.245786 41 1161ft 4kts
28-Sep-17 19:58 34.104149 -117.243176 58 1161ft 9kts
28-Sep-17 19:59 34.103505 -117.241014 108 1161ft 13kts
28-Sep-17 20:00 34.101754 -117.234727 105 1161ft 22kts
28-Sep-17 20:01 34.100101 -117.228547 108 1161ft 15kts
28-Sep-17 20:02 34.100029 -117.224416 72 1161ft 20kts
28-Sep-17 20:03 34.100524 -117.219988 161 1161ft 0kts
28-Sep-17 20:04 34.100524 -117.219988 161 1161ft 0kts
28-Sep-17 20:05 34.099527 -117.220673 249 1161ft 20kts
28-Sep-17 20:06 34.090391 -117.251096 248 1933ft 114kts
28-Sep-17 20:07 34.067809 -117.278520 219 3711ft 116kts
28-Sep-17 20:08 34.043716 -117.304948 229 5588ft 118kts
28-Sep-17 20:09 34.023624 -117.337088 235 7497ft 122kts
28-Sep-17 20:10 34.004922 -117.371981 238 9419ft 126kts
28-Sep-17 20:11 33.986917 -117.408888 240 11419ft 129kts
28-Sep-17 20:12 33.986031 -117.410773 240 11522ft 129kts
28-Sep-17 20:13 33.969320 -117.445523 238 12840ft 134kts
28-Sep-17 20:14 33.944218 -117.488591 229 12529ft 195kts
28-Sep-17 20:15 33.906540 -117.523173 183 11537ft 217kts
28-Sep-17 20:16 33.852149 -117.472021 131 10163ft 220kts
28-Sep-17 20:17 33.815137 -117.412903 121 8952ft 218kts
28-Sep-17 20:18 33.792335 -117.359026 111 7954ft 216kts
28-Sep-17 20:19 33.775298 -117.293029 114 7479ft 192kts
28-Sep-17 20:20 33.729531 -117.248650 145 7487ft 179kts
28-Sep-17 20:21 33.697988 -117.216975 126 7501ft 177kts
28-Sep-17 20:22 33.695520 -117.157350 68 7513ft 195kts
28-Sep-17 20:23 33.705990 -117.082959 99 7493ft 200kts
28-Sep-17 20:24 33.697365 -117.033911 100 7480ft 199kts
28-Sep-17 20:25 33.691385 -116.967665 93 7476ft 199kts
28-Sep-17 20:26 33.692231 -116.901399 86 7463ft 199kts
28-Sep-17 20:27 33.698204 -116.836485 81 7756ft 187kts
28-Sep-17 20:28 33.689811 -116.774702 108 7948ft 195kts
28-Sep-17 20:29 33.676804 -116.710720 99 7941ft 199kts
28-Sep-17 20:30 33.667471 -116.645046 97 7958ft 199kts
28-Sep-17 20:31 33.662151 -116.578874 89 7950ft 199kts
28-Sep-17 20:32 33.665658 -116.512514 88 7944ft 199kts
28-Sep-17 20:33 33.668307 -116.447131 83 7549ft 190kts
28-Sep-17 20:34 33.673507 -116.384967 95 6929ft 186kts
28-Sep-17 20:35 33.654425 -116.328142 115 6312ft 184kts
28-Sep-17 20:36 33.641194 -116.269145 94 5693ft 183kts
28-Sep-17 20:37 33.660370 -116.218962 29 5080ft 181kts
28-Sep-17 20:38 33.680383 -116.252479 240 4547ft 166kts
28-Sep-17 20:39 33.691973 -116.291415 324 4495ft 132kts
28-Sep-17 20:40 33.716792 -116.320933 312 4508ft 122kts
28-Sep-17 20:41 33.739445 -116.349279 303 4525ft 114kts
28-Sep-17 20:42 33.754312 -116.388743 292 3881ft 130kts
28-Sep-17 20:43 33.765557 -116.428407 288 2855ft 120kts
28-Sep-17 20:44 33.781350 -116.462588 319 1786ft 118kts
28-Sep-17 20:45 33.806627 -116.483920 322 1051ft 112kts
28-Sep-17 20:46 33.828862 -116.504019 318 482ft 56kts
28-Sep-17 20:47 33.831398 -116.505674 52 481ft 0kts
28-Sep-17 20:48 33.829560 -116.503428 141 481ft 23kts
28-Sep-17 20:49 33.826888 -116.500308 55 481ft 0kts

Navigation Log

Ident Type
Flight plan parsing failed, navigation log unavailable